createdAt,value
2022-11-28T00:02:57.938Z,87.57
2022-11-28T00:05:47.233Z,93.65
2022-11-28T00:08:34.645Z,88.43
2022-11-28T00:11:30.096Z,96.10
2022-11-28T00:14:18.136Z,85.15
2022-11-28T00:17:05.144Z,93.22
2022-11-28T00:19:51.477Z,92.05
2022-11-28T00:22:37.905Z,90.72
2022-11-28T00:25:24.421Z,90.00
2022-11-28T00:28:11.123Z,97.70
2022-11-28T00:30:57.680Z,92.53
2022-11-28T00:33:44.433Z,101.68
2022-11-28T00:36:31.275Z,91.03
2022-11-28T00:39:18.321Z,89.68
2022-11-28T00:42:06.987Z,89.10
2022-11-28T00:44:53.717Z,96.38
2022-11-28T00:47:39.912Z,85.10
2022-11-28T00:50:27.615Z,83.70
2022-11-28T00:53:13.885Z,95.10
2022-11-28T00:56:03.853Z,93.90
2022-11-28T00:58:50.364Z,91.13
2022-11-28T01:01:42.445Z,88.30
2022-11-28T01:04:29.169Z,90.68
2022-11-28T01:07:15.993Z,89.68
2022-11-28T01:10:02.067Z,94.63
2022-11-28T01:12:48.918Z,77.88
2022-11-28T01:15:35.674Z,92.47
2022-11-28T01:18:22.251Z,89.03
2022-11-28T01:21:09.067Z,93.05
2022-11-28T01:23:56.138Z,93.53
2022-11-28T01:26:42.845Z,88.60
2022-11-28T01:29:29.940Z,88.70
2022-11-28T01:32:19.203Z,85.25
2022-11-28T01:35:06.365Z,85.45
2022-11-28T01:37:52.480Z,90.20
2022-11-28T01:40:45.820Z,82.20
2022-11-28T01:43:32.473Z,90.53
2022-11-28T01:46:19.113Z,82.82
2022-11-28T01:49:24.237Z,85.70
2022-11-28T01:52:15.620Z,92.25
2022-11-28T01:55:02.704Z,87.20
2022-11-28T01:57:55.314Z,80.68
2022-11-28T02:00:41.712Z,91.32
2022-11-28T02:03:34.676Z,83.22
2022-11-28T02:06:23.504Z,91.85
2022-11-28T02:09:15.128Z,85.72
2022-11-28T02:12:52.025Z,87.07
2022-11-28T02:15:49.766Z,93.43
2022-11-28T02:19:06.727Z,84.20
2022-11-28T02:21:59.332Z,91.63
2022-11-28T02:24:57.384Z,90.35
2022-11-28T02:28:18.337Z,83.47
2022-11-28T02:31:22.675Z,84.22
2022-11-28T02:34:32.283Z,86.93
2022-11-28T02:37:27.100Z,88.95
2022-11-28T02:40:23.795Z,91.35
2022-11-28T02:43:31.761Z,91.25
2022-11-28T02:46:30.808Z,89.60
2022-11-28T02:49:25.063Z,94.45
2022-11-28T02:52:15.771Z,94.85
2022-11-28T02:55:02.841Z,91.78
2022-11-28T02:57:53.452Z,93.70
2022-11-28T03:00:43.975Z,86.75
2022-11-28T03:03:43.267Z,88.70
2022-11-28T03:06:58.583Z,85.18
2022-11-28T03:10:08.235Z,92.93
2022-11-28T03:13:06.732Z,103.70
2022-11-28T03:16:11.725Z,86.15
2022-11-28T03:19:23.111Z,91.95
2022-11-28T03:22:46.991Z,88.00
2022-11-28T03:25:54.865Z,98.70
2022-11-28T03:28:49.230Z,93.35
2022-11-28T03:31:45.338Z,92.40
2022-11-28T03:34:35.330Z,88.25
2022-11-28T03:37:26.004Z,92.28
2022-11-28T03:40:15.938Z,96.03
2022-11-28T03:43:05.126Z,95.68
2022-11-28T03:45:54.559Z,108.88
2022-11-28T03:48:44.751Z,107.15
2022-11-28T03:51:36.449Z,107.00
2022-11-28T03:54:32.951Z,109.28
2022-11-28T03:57:23.116Z,106.43
2022-11-28T04:00:13.049Z,100.97
2022-11-28T04:03:16.652Z,95.38
2022-11-28T04:06:07.730Z,98.80
2022-11-28T04:09:28.927Z,103.38
2022-11-28T04:12:56.720Z,112.75
2022-11-28T04:16:00.152Z,93.38
2022-11-28T04:19:01.190Z,85.22
2022-11-28T04:25:01.636Z,85.97
2022-11-28T04:27:52.073Z,80.80
2022-11-28T04:30:39.215Z,85.38
2022-11-28T04:33:27.253Z,79.90
2022-11-28T04:36:15.155Z,79.43
2022-11-28T04:39:02.418Z,87.95
2022-11-28T04:42:03.212Z,80.35
2022-11-28T04:45:23.124Z,86.38
2022-11-28T04:48:09.635Z,80.35
2022-11-28T04:51:05.478Z,76.07
2022-11-28T04:54:00.604Z,79.55
2022-11-28T04:56:56.452Z,78.10
2022-11-28T04:59:43.208Z,82.25
2022-11-28T05:02:30.083Z,82.05
2022-11-28T05:05:21.451Z,75.07
2022-11-28T05:08:08.155Z,76.15
2022-11-28T05:10:54.562Z,73.55
2022-11-28T05:13:41.372Z,72.20
2022-11-28T05:16:29.389Z,70.57
2022-11-28T05:19:16.163Z,74.38
2022-11-28T05:22:02.482Z,73.05
2022-11-28T05:24:49.419Z,59.30
2022-11-28T05:27:35.679Z,60.35
2022-11-28T05:30:23.217Z,69.68
2022-11-28T05:33:09.762Z,68.18
2022-11-28T05:36:11.257Z,71.70
2022-11-28T05:38:59.113Z,66.82
2022-11-28T05:41:48.918Z,55.00
2022-11-28T05:44:38.363Z,58.88
2022-11-28T05:47:25.386Z,49.28
2022-11-28T05:50:12.034Z,51.03
2022-11-28T05:53:02.074Z,50.05
2022-11-28T05:55:51.456Z,55.83
2022-11-28T05:58:38.388Z,51.28
2022-11-28T06:01:27.381Z,52.60
2022-11-28T06:04:13.994Z,60.47
2022-11-28T06:07:00.214Z,51.38
2022-11-28T06:09:46.741Z,52.78
2022-11-28T06:12:33.449Z,49.88
2022-11-28T06:15:20.438Z,61.70
2022-11-28T06:18:06.525Z,106.07
2022-11-28T06:20:53.280Z,83.85
2022-11-28T06:23:39.857Z,54.83
2022-11-28T06:26:28.643Z,54.15
2022-11-28T06:29:15.052Z,58.20
2022-11-28T06:32:01.941Z,53.72
2022-11-28T06:34:48.108Z,58.47
2022-11-28T06:37:34.558Z,55.00
2022-11-28T06:40:21.456Z,72.18
2022-11-28T06:43:08.632Z,56.38
2022-11-28T06:45:55.182Z,59.53
2022-11-28T06:48:42.021Z,52.60
2022-11-28T06:51:28.697Z,57.00
2022-11-28T06:54:15.346Z,63.28
2022-11-28T06:57:01.808Z,61.67
2022-11-28T06:59:49.289Z,67.68
2022-11-28T07:02:35.911Z,63.85
2022-11-28T07:05:23.081Z,60.05
2022-11-28T07:08:10.339Z,67.63
2022-11-28T07:10:57.724Z,58.80
2022-11-28T07:13:48.279Z,65.78
2022-11-28T07:16:35.348Z,72.97
2022-11-28T07:19:23.223Z,63.17
2022-11-28T07:22:11.565Z,70.72
2022-11-28T07:24:58.124Z,60.90
2022-11-28T07:27:45.087Z,72.72
2022-11-28T07:30:31.361Z,77.13
2022-11-28T07:33:17.903Z,67.38
2022-11-28T07:36:06.641Z,79.32
2022-11-28T07:38:58.974Z,99.43
2022-11-28T07:41:45.313Z,124.00
2022-11-28T07:44:32.077Z,117.10
2022-11-28T07:47:18.538Z,96.63
2022-11-28T07:50:05.731Z,93.40
2022-11-28T07:52:52.242Z,91.40
2022-11-28T07:55:39.067Z,158.90
2022-11-28T07:58:25.416Z,212.32
2022-11-28T08:01:23.027Z,185.85
2022-11-28T08:04:10.037Z,127.85
2022-11-28T08:06:57.121Z,86.22
2022-11-28T08:09:43.974Z,85.18
2022-11-28T08:12:31.262Z,90.35
2022-11-28T08:15:17.467Z,65.22
2022-11-28T08:18:04.060Z,65.82
2022-11-28T08:20:50.615Z,71.47
2022-11-28T08:23:37.788Z,62.60
2022-11-28T08:26:28.887Z,60.00
2022-11-28T08:29:17.082Z,59.80
2022-11-28T08:32:03.780Z,49.25
2022-11-28T08:34:50.848Z,56.33
2022-11-28T08:37:37.000Z,58.00
2022-11-28T08:40:26.621Z,52.25
2022-11-28T08:43:13.489Z,52.40
2022-11-28T08:46:02.324Z,51.85
2022-11-28T08:48:50.212Z,51.95
2022-11-28T08:51:37.937Z,54.25
2022-11-28T08:54:24.582Z,55.13
2022-11-28T08:57:11.522Z,53.97
2022-11-28T08:59:57.617Z,51.33
2022-11-28T09:02:44.311Z,50.47
2022-11-28T09:05:31.162Z,50.75
2022-11-28T09:08:20.234Z,49.42
2022-11-28T09:11:11.805Z,50.60
2022-11-28T09:14:00.218Z,56.17
2022-11-28T09:16:46.671Z,50.83
2022-11-28T09:19:33.529Z,51.53
2022-11-28T09:22:19.964Z,51.05
2022-11-28T09:25:06.953Z,52.38
2022-11-28T09:27:53.365Z,47.85
2022-11-28T09:30:40.357Z,52.95
2022-11-28T09:33:26.653Z,55.35
2022-11-28T09:36:16.941Z,76.93
2022-11-28T09:39:03.622Z,80.35
2022-11-28T09:42:02.319Z,89.45
2022-11-28T09:44:53.249Z,65.30
2022-11-28T09:50:31.037Z,112.03
2022-11-28T09:53:27.154Z,87.10
2022-11-28T09:56:18.320Z,86.10
2022-11-28T10:02:05.924Z,56.92
2022-11-28T10:05:02.548Z,62.03
2022-11-28T10:08:07.322Z,55.80
2022-11-28T10:11:12.429Z,77.10
2022-11-28T10:14:32.369Z,57.70
2022-11-28T10:18:07.484Z,51.63
2022-11-28T10:20:59.708Z,61.92
2022-11-28T10:26:38.990Z,48.53
2022-11-28T10:29:30.292Z,57.80
2022-11-28T10:32:18.881Z,50.40
2022-11-28T10:35:52.540Z,50.80
2022-11-28T10:38:38.873Z,55.97
2022-11-28T10:41:34.802Z,50.30
2022-11-28T10:44:31.359Z,60.45
2022-11-28T10:47:44.053Z,52.30
2022-11-28T10:50:45.226Z,58.30
2022-11-28T10:53:50.069Z,57.95
2022-11-28T10:57:05.801Z,50.30
2022-11-28T10:59:58.598Z,62.08
2022-11-28T11:02:48.284Z,55.10
2022-11-28T11:05:36.475Z,56.70
2022-11-28T11:08:25.808Z,58.65
2022-11-28T11:11:27.717Z,58.17
2022-11-28T11:14:14.181Z,55.80
2022-11-28T11:17:00.640Z,55.97
2022-11-28T11:19:47.351Z,81.28
2022-11-28T11:22:33.975Z,53.40
2022-11-28T11:25:20.586Z,55.83
2022-11-28T11:28:38.848Z,51.50
2022-11-28T11:31:41.197Z,59.78
2022-11-28T11:34:35.472Z,63.28
2022-11-28T11:37:36.147Z,58.47
2022-11-28T11:40:26.416Z,81.97
2022-11-28T11:43:32.039Z,114.57
2022-11-28T11:46:20.324Z,68.43
2022-11-28T11:49:06.710Z,56.13
2022-11-28T11:52:00.199Z,53.65
2022-11-28T11:54:55.650Z,61.17
2022-11-28T11:57:53.271Z,56.70
2022-11-28T12:00:40.480Z,72.43
2022-11-28T12:03:38.580Z,48.92
2022-11-28T12:06:29.292Z,54.28
2022-11-28T12:09:30.473Z,59.58
2022-11-28T12:12:23.281Z,46.37
2022-11-28T12:15:17.406Z,55.80
2022-11-28T12:18:36.414Z,63.95
2022-11-28T12:21:49.263Z,58.20
2022-11-28T12:25:17.099Z,56.50
2022-11-28T12:28:35.993Z,51.67
2022-11-28T12:32:00.410Z,57.38
2022-11-28T12:35:09.759Z,49.42
2022-11-28T12:38:10.833Z,49.95
2022-11-28T12:41:32.172Z,57.63
2022-11-28T12:44:38.815Z,50.45
2022-11-28T12:47:40.803Z,52.70
2022-11-28T12:50:36.942Z,44.35
2022-11-28T12:53:29.564Z,45.90
2022-11-28T12:56:45.727Z,46.75
2022-11-28T12:59:53.594Z,52.63
2022-11-28T13:03:01.141Z,42.67
2022-11-28T13:06:09.391Z,47.70
2022-11-28T13:09:18.208Z,42.60
2022-11-28T13:12:39.744Z,43.53
2022-11-28T13:18:41.715Z,61.30
2022-11-28T13:21:44.988Z,74.30
2022-11-28T13:24:37.005Z,65.70
2022-11-28T13:27:39.527Z,53.17
2022-11-28T13:30:27.466Z,60.65
2022-11-28T13:33:33.239Z,69.60
2022-11-28T13:40:32.239Z,154.02
2022-11-28T13:43:25.970Z,153.43
2022-11-28T13:46:12.259Z,131.32
2022-11-28T13:49:20.461Z,106.13
2022-11-28T13:52:19.243Z,87.70
2022-11-28T13:55:25.956Z,69.20
2022-11-28T13:58:18.113Z,58.85
2022-11-28T14:01:11.594Z,74.57
2022-11-28T14:04:13.899Z,72.85
2022-11-28T14:07:07.079Z,84.55
2022-11-28T14:10:23.258Z,110.80
2022-11-28T14:13:23.552Z,86.13
2022-11-28T14:16:17.874Z,110.22
2022-11-28T14:19:17.033Z,79.05
2022-11-28T14:22:32.581Z,108.60
2022-11-28T14:25:28.448Z,84.95
2022-11-28T14:28:48.637Z,121.50
2022-11-28T14:31:37.887Z,102.90
2022-11-28T14:34:38.686Z,101.22
2022-11-28T14:37:30.117Z,93.97
2022-11-28T14:40:50.753Z,164.13
2022-11-28T14:43:42.597Z,175.77
2022-11-28T14:46:33.564Z,124.55
2022-11-28T14:49:21.538Z,193.48
2022-11-28T14:52:41.758Z,149.50
2022-11-28T14:55:37.992Z,99.85
2022-11-28T14:58:26.754Z,75.45
2022-11-28T15:01:19.351Z,77.03
2022-11-28T15:04:25.115Z,81.22
2022-11-28T15:07:32.787Z,87.70
2022-11-28T15:10:25.738Z,69.25
2022-11-28T15:13:51.704Z,91.05
2022-11-28T15:16:46.591Z,81.90
2022-11-28T15:19:47.199Z,114.15
2022-11-28T15:22:42.627Z,73.38
2022-11-28T15:25:37.484Z,80.88
2022-11-28T15:28:30.013Z,80.85
2022-11-28T15:31:27.299Z,71.88
2022-11-28T15:34:28.410Z,65.03
2022-11-28T15:37:19.056Z,67.32
2022-11-28T15:40:06.375Z,70.32
2022-11-28T15:42:52.991Z,63.00
2022-11-28T15:45:42.872Z,69.03
2022-11-28T15:48:48.419Z,63.92
2022-11-28T15:51:40.748Z,67.28
2022-11-28T15:54:35.678Z,68.05
2022-11-28T15:57:25.247Z,76.75
2022-11-28T16:00:20.998Z,83.07
2022-11-28T16:03:14.165Z,93.55
2022-11-28T16:06:00.912Z,89.50
2022-11-28T16:09:02.069Z,89.60
2022-11-28T16:11:50.492Z,80.60
2022-11-28T16:14:43.370Z,86.47
2022-11-28T16:17:32.646Z,88.32
2022-11-28T16:20:28.860Z,88.07
2022-11-28T16:23:21.049Z,102.40
2022-11-28T16:26:26.634Z,106.95
2022-11-28T16:29:17.397Z,129.07
2022-11-28T16:32:11.409Z,125.20
2022-11-28T16:35:01.285Z,111.20
2022-11-28T16:37:47.719Z,93.47
2022-11-28T16:40:37.369Z,114.88
2022-11-28T16:43:35.254Z,98.13
2022-11-28T16:49:50.761Z,88.00
2022-11-28T16:52:50.968Z,68.85
2022-11-28T16:55:38.961Z,71.63
2022-11-28T16:58:25.618Z,65.85
2022-11-28T17:01:12.304Z,65.90
2022-11-28T17:03:59.156Z,77.15
2022-11-28T17:06:57.117Z,96.07
2022-11-28T17:09:51.834Z,77.03
2022-11-28T17:12:39.276Z,74.53
2022-11-28T17:15:25.626Z,74.25
2022-11-28T17:18:12.293Z,81.20
2022-11-28T17:21:01.148Z,80.78
2022-11-28T17:24:26.202Z,86.05
2022-11-28T17:27:33.705Z,72.50
2022-11-28T17:30:21.495Z,80.05
2022-11-28T17:33:07.919Z,67.03
2022-11-28T17:35:55.937Z,81.18
2022-11-28T17:38:42.512Z,81.28
2022-11-28T17:41:29.344Z,94.15
2022-11-28T17:44:24.928Z,99.38
2022-11-28T17:47:15.239Z,89.18
2022-11-28T17:50:01.581Z,65.40
2022-11-28T17:52:49.666Z,82.35
2022-11-28T17:55:42.217Z,79.25
2022-11-28T17:58:32.398Z,82.83
2022-11-28T18:01:27.312Z,69.07
2022-11-28T18:04:21.277Z,106.57
2022-11-28T18:07:07.568Z,85.40
2022-11-28T18:09:54.129Z,72.78
2022-11-28T18:12:42.166Z,66.63
2022-11-28T18:15:29.443Z,68.65
2022-11-28T18:18:15.925Z,78.82
2022-11-28T18:21:03.957Z,70.28
2022-11-28T18:23:55.665Z,63.67
2022-11-28T18:26:50.801Z,69.38
2022-11-28T18:32:41.856Z,75.57
2022-11-28T18:35:28.232Z,74.50
2022-11-28T18:38:15.416Z,66.95
2022-11-28T18:41:10.069Z,70.43
2022-11-28T18:44:02.038Z,68.03
2022-11-28T18:46:55.281Z,73.78
2022-11-28T18:49:43.357Z,74.05
2022-11-28T18:52:30.386Z,78.40
2022-11-28T18:55:24.077Z,103.38
2022-11-28T18:58:12.200Z,87.35
2022-11-28T19:01:29.624Z,100.80
2022-11-28T19:04:23.124Z,76.13
2022-11-28T19:07:10.712Z,79.85
2022-11-28T19:09:59.952Z,68.13
2022-11-28T19:12:49.115Z,89.50
2022-11-28T19:15:41.180Z,90.65
2022-11-28T19:18:32.082Z,78.68
2022-11-28T19:21:23.469Z,74.43
2022-11-28T19:24:14.384Z,68.38
2022-11-28T19:27:01.092Z,74.80
2022-11-28T19:29:52.100Z,99.50
2022-11-28T19:32:39.138Z,77.75
2022-11-28T19:35:28.673Z,100.90
2022-11-28T19:38:19.029Z,109.07
2022-11-28T19:41:09.548Z,83.05
2022-11-28T19:43:57.013Z,106.40
2022-11-28T19:46:48.463Z,89.72
2022-11-28T19:49:41.612Z,100.97
2022-11-28T19:52:29.407Z,89.50
2022-11-28T19:55:16.523Z,82.10
2022-11-28T19:58:05.411Z,88.15
2022-11-28T20:00:54.123Z,89.22
2022-11-28T20:03:42.843Z,87.40
2022-11-28T20:06:33.796Z,100.45
2022-11-28T20:09:22.197Z,103.65
2022-11-28T20:12:11.160Z,97.47
2022-11-28T20:15:02.398Z,101.35
2022-11-28T20:17:54.789Z,87.72
2022-11-28T20:20:51.436Z,70.85
2022-11-28T20:23:52.420Z,76.55
2022-11-28T20:26:43.571Z,70.55
2022-11-28T20:29:30.140Z,65.97
2022-11-28T20:32:19.286Z,70.28
2022-11-28T20:35:06.633Z,67.43
2022-11-28T20:37:53.377Z,74.07
2022-11-28T20:40:39.876Z,62.88
2022-11-28T20:43:26.259Z,67.10
2022-11-28T20:46:22.350Z,63.75
2022-11-28T20:49:13.340Z,63.65
2022-11-28T20:51:59.374Z,62.00
2022-11-28T20:54:55.405Z,63.88
2022-11-28T20:57:44.374Z,64.75
2022-11-28T21:00:33.485Z,61.90
2022-11-28T21:03:23.602Z,67.53
2022-11-28T21:06:10.590Z,58.58
2022-11-28T21:08:59.431Z,61.53
2022-11-28T21:12:02.847Z,60.72
2022-11-28T21:14:49.140Z,65.32
2022-11-28T21:17:35.876Z,60.72
2022-11-28T21:20:22.288Z,60.22
2022-11-28T21:23:13.318Z,53.50
2022-11-28T21:26:05.739Z,54.22
2022-11-28T21:28:54.101Z,57.15
2022-11-28T21:31:44.369Z,65.20
2022-11-28T21:34:30.849Z,75.07
2022-11-28T21:37:17.184Z,67.13
2022-11-28T21:40:04.076Z,64.72
2022-11-28T21:42:55.538Z,52.33
2022-11-28T21:45:42.533Z,58.85
2022-11-28T21:48:32.940Z,64.93
2022-11-28T21:51:22.668Z,56.22
2022-11-28T21:54:13.056Z,60.58
2022-11-28T21:57:01.615Z,56.58
2022-11-28T21:59:48.670Z,59.50
2022-11-28T22:02:35.542Z,63.17
2022-11-28T22:05:24.344Z,54.30
2022-11-28T22:08:12.107Z,54.78
2022-11-28T22:11:01.111Z,64.35
2022-11-28T22:13:49.108Z,60.67
2022-11-28T22:16:35.714Z,62.00
2022-11-28T22:19:22.839Z,54.45
2022-11-28T22:22:09.551Z,59.67
2022-11-28T22:24:59.039Z,53.42
2022-11-28T22:27:48.348Z,55.55
2022-11-28T22:30:35.236Z,49.55
2022-11-28T22:33:21.787Z,52.97
2022-11-28T22:36:13.826Z,61.40
2022-11-28T22:39:01.145Z,59.17
2022-11-28T22:41:47.758Z,55.03
2022-11-28T22:44:34.360Z,56.25
2022-11-28T22:47:24.106Z,61.00
2022-11-28T22:50:11.179Z,55.00
2022-11-28T22:52:57.890Z,61.35
2022-11-28T22:55:44.075Z,51.55
2022-11-28T22:58:31.213Z,58.45
2022-11-28T23:01:20.687Z,60.03
2022-11-28T23:04:11.008Z,51.08
2022-11-28T23:06:57.293Z,52.15
2022-11-28T23:09:43.700Z,50.22
2022-11-28T23:12:32.746Z,51.80
2022-11-28T23:15:19.301Z,52.58
2022-11-28T23:18:05.608Z,52.92
2022-11-28T23:20:56.335Z,54.10
2022-11-28T23:23:44.204Z,51.53
2022-11-28T23:26:34.424Z,47.22
2022-11-28T23:29:25.018Z,67.30
2022-11-28T23:32:14.232Z,52.15
2022-11-28T23:35:01.317Z,50.35
2022-11-28T23:37:48.010Z,52.47
2022-11-28T23:40:34.396Z,49.28
2022-11-28T23:43:20.968Z,54.97
2022-11-28T23:46:08.461Z,57.50
2022-11-28T23:48:55.855Z,41.95
2022-11-28T23:51:42.311Z,46.85
2022-11-28T23:54:29.305Z,50.22
2022-11-28T23:57:15.707Z,58.42
